sensor_id;sensor_type;location;lat;lon;timestamp;P1;durP1;ratioP1;P2;durP2;ratioP2
49296;SDS011;35163;48.878;18.040;2024-01-10T00:01:55;57.38;;;27.08;;
49296;SDS011;35163;48.878;18.040;2024-01-10T00:04:21;59.83;;;28.33;;
49296;SDS011;35163;48.878;18.040;2024-01-10T00:06:48;57.47;;;27.55;;
49296;SDS011;35163;48.878;18.040;2024-01-10T00:09:15;61.13;;;27.70;;
49296;SDS011;35163;48.878;18.040;2024-01-10T00:11:42;56.83;;;26.88;;
49296;SDS011;35163;48.878;18.040;2024-01-10T00:14:09;57.15;;;26.42;;
49296;SDS011;35163;48.878;18.040;2024-01-10T00:16:36;53.35;;;26.38;;
49296;SDS011;35163;48.878;18.040;2024-01-10T00:19:02;66.55;;;28.50;;
49296;SDS011;35163;48.878;18.040;2024-01-10T00:21:30;59.38;;;26.95;;
49296;SDS011;35163;48.878;18.040;2024-01-10T00:23:57;66.28;;;28.60;;
49296;SDS011;35163;48.878;18.040;2024-01-10T00:26:23;59.78;;;27.27;;
49296;SDS011;35163;48.878;18.040;2024-01-10T00:28:50;59.13;;;27.83;;
49296;SDS011;35163;48.878;18.040;2024-01-10T00:31:17;64.95;;;27.90;;
49296;SDS011;35163;48.878;18.040;2024-01-10T00:33:44;63.40;;;28.95;;
49296;SDS011;35163;48.878;18.040;2024-01-10T00:36:11;64.22;;;28.92;;
49296;SDS011;35163;48.878;18.040;2024-01-10T00:38:37;62.28;;;26.23;;
49296;SDS011;35163;48.878;18.040;2024-01-10T00:41:04;62.58;;;27.77;;
49296;SDS011;35163;48.878;18.040;2024-01-10T00:43:31;60.85;;;29.38;;
49296;SDS011;35163;48.878;18.040;2024-01-10T00:45:58;57.28;;;27.02;;
49296;SDS011;35163;48.878;18.040;2024-01-10T00:48:25;63.45;;;27.23;;
49296;SDS011;35163;48.878;18.040;2024-01-10T00:50:52;63.42;;;27.63;;
49296;SDS011;35163;48.878;18.040;2024-01-10T00:53:18;60.15;;;27.55;;
49296;SDS011;35163;48.878;18.040;2024-01-10T00:55:45;63.83;;;28.33;;
49296;SDS011;35163;48.878;18.040;2024-01-10T00:58:12;53.97;;;27.38;;
49296;SDS011;35163;48.878;18.040;2024-01-10T01:00:39;57.20;;;28.23;;
49296;SDS011;35163;48.878;18.040;2024-01-10T01:03:06;68.35;;;28.77;;
49296;SDS011;35163;48.878;18.040;2024-01-10T01:05:33;70.18;;;30.45;;
49296;SDS011;35163;48.878;18.040;2024-01-10T01:08:00;73.95;;;30.35;;
49296;SDS011;35163;48.878;18.040;2024-01-10T01:10:27;69.05;;;27.45;;
49296;SDS011;35163;48.878;18.040;2024-01-10T01:12:53;60.85;;;27.35;;
49296;SDS011;35163;48.878;18.040;2024-01-10T01:15:20;57.53;;;29.00;;
49296;SDS011;35163;48.878;18.040;2024-01-10T01:17:47;65.85;;;27.67;;
49296;SDS011;35163;48.878;18.040;2024-01-10T01:20:14;60.80;;;27.85;;
49296;SDS011;35163;48.878;18.040;2024-01-10T01:22:41;66.15;;;28.35;;
49296;SDS011;35163;48.878;18.040;2024-01-10T01:25:08;62.03;;;28.23;;
49296;SDS011;35163;48.878;18.040;2024-01-10T01:27:35;63.70;;;29.50;;
49296;SDS011;35163;48.878;18.040;2024-01-10T01:30:02;57.22;;;27.80;;
49296;SDS011;35163;48.878;18.040;2024-01-10T01:32:30;59.58;;;28.33;;
49296;SDS011;35163;48.878;18.040;2024-01-10T01:34:56;68.55;;;27.30;;
49296;SDS011;35163;48.878;18.040;2024-01-10T01:37:23;62.15;;;26.33;;
49296;SDS011;35163;48.878;18.040;2024-01-10T01:39:50;65.18;;;26.10;;
49296;SDS011;35163;48.878;18.040;2024-01-10T01:42:17;65.90;;;26.80;;
49296;SDS011;35163;48.878;18.040;2024-01-10T01:44:43;60.40;;;26.70;;
49296;SDS011;35163;48.878;18.040;2024-01-10T01:47:10;57.67;;;26.33;;
49296;SDS011;35163;48.878;18.040;2024-01-10T01:49:37;58.28;;;26.05;;
49296;SDS011;35163;48.878;18.040;2024-01-10T01:52:04;61.78;;;27.30;;
49296;SDS011;35163;48.878;18.040;2024-01-10T01:54:32;59.00;;;27.35;;
49296;SDS011;35163;48.878;18.040;2024-01-10T01:56:59;55.78;;;26.25;;
49296;SDS011;35163;48.878;18.040;2024-01-10T01:59:26;59.20;;;26.35;;
49296;SDS011;35163;48.878;18.040;2024-01-10T02:01:54;56.80;;;25.88;;
49296;SDS011;35163;48.878;18.040;2024-01-10T02:04:23;54.13;;;25.77;;
49296;SDS011;35163;48.878;18.040;2024-01-10T02:06:50;64.15;;;28.00;;
49296;SDS011;35163;48.878;18.040;2024-01-10T02:09:17;55.20;;;26.60;;
49296;SDS011;35163;48.878;18.040;2024-01-10T02:11:44;53.95;;;25.77;;
49296;SDS011;35163;48.878;18.040;2024-01-10T02:14:11;56.28;;;24.33;;
49296;SDS011;35163;48.878;18.040;2024-01-10T02:16:38;55.42;;;26.42;;
49296;SDS011;35163;48.878;18.040;2024-01-10T02:19:20;55.42;;;26.77;;
49296;SDS011;35163;48.878;18.040;2024-01-10T02:21:48;63.58;;;27.40;;
49296;SDS011;35163;48.878;18.040;2024-01-10T02:24:15;62.35;;;28.05;;
49296;SDS011;35163;48.878;18.040;2024-01-10T02:26:42;65.57;;;28.23;;
49296;SDS011;35163;48.878;18.040;2024-01-10T02:29:09;62.40;;;27.40;;
49296;SDS011;35163;48.878;18.040;2024-01-10T02:31:36;64.40;;;27.23;;
49296;SDS011;35163;48.878;18.040;2024-01-10T02:34:03;60.65;;;27.90;;
49296;SDS011;35163;48.878;18.040;2024-01-10T02:36:30;62.90;;;28.17;;
49296;SDS011;35163;48.878;18.040;2024-01-10T02:38:57;63.88;;;27.83;;
49296;SDS011;35163;48.878;18.040;2024-01-10T02:41:24;62.55;;;27.65;;
49296;SDS011;35163;48.878;18.040;2024-01-10T02:43:51;64.88;;;28.70;;
49296;SDS011;35163;48.878;18.040;2024-01-10T02:46:17;59.58;;;27.30;;
49296;SDS011;35163;48.878;18.040;2024-01-10T02:48:46;59.22;;;26.17;;
49296;SDS011;35163;48.878;18.040;2024-01-10T02:51:13;60.95;;;26.67;;
49296;SDS011;35163;48.878;18.040;2024-01-10T02:53:40;63.05;;;27.70;;
49296;SDS011;35163;48.878;18.040;2024-01-10T02:56:07;63.42;;;27.27;;
49296;SDS011;35163;48.878;18.040;2024-01-10T02:58:33;68.15;;;27.88;;
49296;SDS011;35163;48.878;18.040;2024-01-10T03:01:00;62.53;;;29.35;;
49296;SDS011;35163;48.878;18.040;2024-01-10T03:03:28;55.95;;;25.48;;
49296;SDS011;35163;48.878;18.040;2024-01-10T03:05:54;67.85;;;30.20;;
49296;SDS011;35163;48.878;18.040;2024-01-10T03:08:21;60.33;;;27.88;;
49296;SDS011;35163;48.878;18.040;2024-01-10T03:10:48;63.00;;;27.33;;
49296;SDS011;35163;48.878;18.040;2024-01-10T03:13:15;62.92;;;27.45;;
49296;SDS011;35163;48.878;18.040;2024-01-10T03:15:41;61.60;;;28.17;;
49296;SDS011;35163;48.878;18.040;2024-01-10T03:18:08;64.25;;;26.90;;
49296;SDS011;35163;48.878;18.040;2024-01-10T03:20:35;55.13;;;26.38;;
49296;SDS011;35163;48.878;18.040;2024-01-10T03:23:02;60.53;;;27.27;;
49296;SDS011;35163;48.878;18.040;2024-01-10T03:25:29;56.47;;;28.48;;
49296;SDS011;35163;48.878;18.040;2024-01-10T03:27:55;323.70;;;143.65;;
49296;SDS011;35163;48.878;18.040;2024-01-10T03:30:22;355.55;;;153.57;;
49296;SDS011;35163;48.878;18.040;2024-01-10T03:32:51;444.73;;;203.68;;
49296;SDS011;35163;48.878;18.040;2024-01-10T03:35:18;331.25;;;129.52;;
49296;SDS011;35163;48.878;18.040;2024-01-10T03:37:44;335.48;;;135.23;;
49296;SDS011;35163;48.878;18.040;2024-01-10T03:40:12;254.80;;;104.43;;
49296;SDS011;35163;48.878;18.040;2024-01-10T03:42:39;340.33;;;133.82;;
49296;SDS011;35163;48.878;18.040;2024-01-10T03:45:05;298.70;;;116.13;;
49296;SDS011;35163;48.878;18.040;2024-01-10T03:47:32;260.02;;;103.43;;
49296;SDS011;35163;48.878;18.040;2024-01-10T03:49:59;221.07;;;88.03;;
49296;SDS011;35163;48.878;18.040;2024-01-10T03:52:26;252.70;;;101.65;;
49296;SDS011;35163;48.878;18.040;2024-01-10T03:54:53;238.07;;;96.55;;
49296;SDS011;35163;48.878;18.040;2024-01-10T03:57:19;236.07;;;97.15;;
49296;SDS011;35163;48.878;18.040;2024-01-10T03:59:46;222.80;;;90.53;;
49296;SDS011;35163;48.878;18.040;2024-01-10T04:02:13;197.40;;;81.20;;
49296;SDS011;35163;48.878;18.040;2024-01-10T04:04:40;169.52;;;69.60;;
49296;SDS011;35163;48.878;18.040;2024-01-10T04:07:07;190.82;;;72.72;;
49296;SDS011;35163;48.878;18.040;2024-01-10T04:09:33;107.03;;;44.10;;
49296;SDS011;35163;48.878;18.040;2024-01-10T04:12:00;91.53;;;38.50;;
49296;SDS011;35163;48.878;18.040;2024-01-10T04:14:27;151.52;;;58.42;;
49296;SDS011;35163;48.878;18.040;2024-01-10T04:16:54;106.57;;;44.38;;
49296;SDS011;35163;48.878;18.040;2024-01-10T04:19:21;123.88;;;50.33;;
49296;SDS011;35163;48.878;18.040;2024-01-10T04:21:48;116.75;;;48.22;;
49296;SDS011;35163;48.878;18.040;2024-01-10T04:24:14;108.28;;;42.88;;
49296;SDS011;35163;48.878;18.040;2024-01-10T04:26:41;84.05;;;37.92;;
49296;SDS011;35163;48.878;18.040;2024-01-10T04:29:08;95.13;;;38.38;;
49296;SDS011;35163;48.878;18.040;2024-01-10T04:31:35;80.88;;;37.17;;
49296;SDS011;35163;48.878;18.040;2024-01-10T04:34:02;77.32;;;35.67;;
49296;SDS011;35163;48.878;18.040;2024-01-10T04:36:29;85.05;;;35.45;;
49296;SDS011;35163;48.878;18.040;2024-01-10T04:38:56;83.80;;;34.88;;
49296;SDS011;35163;48.878;18.040;2024-01-10T04:41:23;68.75;;;30.02;;
49296;SDS011;35163;48.878;18.040;2024-01-10T04:43:50;66.72;;;29.13;;
49296;SDS011;35163;48.878;18.040;2024-01-10T04:46:18;62.72;;;28.15;;
49296;SDS011;35163;48.878;18.040;2024-01-10T04:48:44;55.13;;;25.65;;
49296;SDS011;35163;48.878;18.040;2024-01-10T04:51:11;74.25;;;28.42;;
49296;SDS011;35163;48.878;18.040;2024-01-10T04:53:38;61.92;;;27.08;;
49296;SDS011;35163;48.878;18.040;2024-01-10T04:56:05;61.67;;;27.90;;
49296;SDS011;35163;48.878;18.040;2024-01-10T04:58:32;59.97;;;26.98;;
49296;SDS011;35163;48.878;18.040;2024-01-10T05:01:03;59.25;;;27.00;;
49296;SDS011;35163;48.878;18.040;2024-01-10T05:03:30;61.65;;;27.05;;
49296;SDS011;35163;48.878;18.040;2024-01-10T05:05:57;63.38;;;27.83;;
49296;SDS011;35163;48.878;18.040;2024-01-10T05:08:24;63.05;;;27.45;;
49296;SDS011;35163;48.878;18.040;2024-01-10T05:10:51;60.50;;;26.80;;
49296;SDS011;35163;48.878;18.040;2024-01-10T05:13:18;62.40;;;27.40;;
49296;SDS011;35163;48.878;18.040;2024-01-10T05:15:44;54.92;;;25.98;;
49296;SDS011;35163;48.878;18.040;2024-01-10T05:18:11;62.72;;;27.65;;
49296;SDS011;35163;48.878;18.040;2024-01-10T05:20:38;68.90;;;29.92;;
49296;SDS011;35163;48.878;18.040;2024-01-10T05:23:05;62.25;;;26.80;;
49296;SDS011;35163;48.878;18.040;2024-01-10T05:25:32;62.88;;;28.13;;
49296;SDS011;35163;48.878;18.040;2024-01-10T05:27:59;53.60;;;26.60;;
49296;SDS011;35163;48.878;18.040;2024-01-10T05:30:26;56.78;;;27.60;;
49296;SDS011;35163;48.878;18.040;2024-01-10T05:32:54;68.65;;;28.13;;
49296;SDS011;35163;48.878;18.040;2024-01-10T05:35:21;58.05;;;28.25;;
49296;SDS011;35163;48.878;18.040;2024-01-10T05:37:48;61.72;;;27.95;;
49296;SDS011;35163;48.878;18.040;2024-01-10T05:40:16;63.55;;;28.27;;
49296;SDS011;35163;48.878;18.040;2024-01-10T05:42:43;67.90;;;30.33;;
49296;SDS011;35163;48.878;18.040;2024-01-10T05:45:10;67.05;;;29.48;;
49296;SDS011;35163;48.878;18.040;2024-01-10T05:47:37;60.28;;;28.05;;
49296;SDS011;35163;48.878;18.040;2024-01-10T05:50:04;62.25;;;28.95;;
49296;SDS011;35163;48.878;18.040;2024-01-10T05:52:34;63.83;;;27.75;;
49296;SDS011;35163;48.878;18.040;2024-01-10T05:55:01;59.40;;;27.88;;
49296;SDS011;35163;48.878;18.040;2024-01-10T05:57:29;62.80;;;28.08;;
49296;SDS011;35163;48.878;18.040;2024-01-10T05:59:56;73.63;;;29.42;;
49296;SDS011;35163;48.878;18.040;2024-01-10T06:02:23;65.80;;;28.23;;
49296;SDS011;35163;48.878;18.040;2024-01-10T06:04:51;57.20;;;26.73;;
49296;SDS011;35163;48.878;18.040;2024-01-10T06:07:18;64.55;;;28.23;;
49296;SDS011;35163;48.878;18.040;2024-01-10T06:09:45;63.00;;;27.52;;
49296;SDS011;35163;48.878;18.040;2024-01-10T06:12:12;60.17;;;26.23;;
49296;SDS011;35163;48.878;18.040;2024-01-10T06:14:39;62.58;;;27.90;;
49296;SDS011;35163;48.878;18.040;2024-01-10T06:17:06;56.20;;;26.02;;
49296;SDS011;35163;48.878;18.040;2024-01-10T06:19:33;54.50;;;27.92;;
49296;SDS011;35163;48.878;18.040;2024-01-10T06:21:59;59.63;;;26.48;;
49296;SDS011;35163;48.878;18.040;2024-01-10T06:24:26;63.67;;;27.45;;
49296;SDS011;35163;48.878;18.040;2024-01-10T06:26:53;60.67;;;27.52;;
49296;SDS011;35163;48.878;18.040;2024-01-10T06:29:19;59.17;;;27.73;;
49296;SDS011;35163;48.878;18.040;2024-01-10T06:31:46;55.88;;;26.00;;
49296;SDS011;35163;48.878;18.040;2024-01-10T06:34:14;60.00;;;26.67;;
49296;SDS011;35163;48.878;18.040;2024-01-10T06:36:41;64.10;;;26.95;;
49296;SDS011;35163;48.878;18.040;2024-01-10T06:39:10;55.65;;;25.48;;
49296;SDS011;35163;48.878;18.040;2024-01-10T06:41:39;53.83;;;24.83;;
49296;SDS011;35163;48.878;18.040;2024-01-10T06:44:06;56.40;;;25.30;;
49296;SDS011;35163;48.878;18.040;2024-01-10T06:46:33;55.22;;;25.17;;
49296;SDS011;35163;48.878;18.040;2024-01-10T06:49:00;51.83;;;23.60;;
49296;SDS011;35163;48.878;18.040;2024-01-10T06:51:27;63.45;;;27.30;;
49296;SDS011;35163;48.878;18.040;2024-01-10T06:53:54;52.05;;;24.63;;
49296;SDS011;35163;48.878;18.040;2024-01-10T06:56:26;56.28;;;25.30;;
49296;SDS011;35163;48.878;18.040;2024-01-10T06:58:53;55.15;;;24.77;;
49296;SDS011;35163;48.878;18.040;2024-01-10T07:01:21;53.60;;;23.95;;
49296;SDS011;35163;48.878;18.040;2024-01-10T07:03:48;60.03;;;26.35;;
49296;SDS011;35163;48.878;18.040;2024-01-10T07:06:15;58.00;;;26.00;;
49296;SDS011;35163;48.878;18.040;2024-01-10T07:08:42;56.35;;;26.42;;
49296;SDS011;35163;48.878;18.040;2024-01-10T07:11:11;56.90;;;24.20;;
49296;SDS011;35163;48.878;18.040;2024-01-10T07:13:38;52.90;;;24.63;;
49296;SDS011;35163;48.878;18.040;2024-01-10T07:16:05;53.50;;;26.27;;
49296;SDS011;35163;48.878;18.040;2024-01-10T07:18:32;58.58;;;25.95;;
49296;SDS011;35163;48.878;18.040;2024-01-10T07:20:59;56.63;;;24.92;;
49296;SDS011;35163;48.878;18.040;2024-01-10T07:23:26;49.15;;;23.90;;
49296;SDS011;35163;48.878;18.040;2024-01-10T07:25:53;50.85;;;23.95;;
49296;SDS011;35163;48.878;18.040;2024-01-10T07:28:20;53.95;;;24.70;;
49296;SDS011;35163;48.878;18.040;2024-01-10T07:30:47;54.25;;;25.77;;
49296;SDS011;35163;48.878;18.040;2024-01-10T07:33:14;54.50;;;23.98;;
49296;SDS011;35163;48.878;18.040;2024-01-10T07:35:42;59.78;;;24.83;;
49296;SDS011;35163;48.878;18.040;2024-01-10T07:38:08;52.40;;;23.50;;
49296;SDS011;35163;48.878;18.040;2024-01-10T07:40:36;52.67;;;22.70;;
49296;SDS011;35163;48.878;18.040;2024-01-10T07:43:04;52.63;;;25.02;;
49296;SDS011;35163;48.878;18.040;2024-01-10T07:45:31;64.13;;;23.85;;
49296;SDS011;35163;48.878;18.040;2024-01-10T07:47:57;57.10;;;24.67;;
49296;SDS011;35163;48.878;18.040;2024-01-10T07:50:24;51.15;;;24.60;;
49296;SDS011;35163;48.878;18.040;2024-01-10T07:52:54;50.88;;;25.05;;
49296;SDS011;35163;48.878;18.040;2024-01-10T07:55:21;51.78;;;23.15;;
49296;SDS011;35163;48.878;18.040;2024-01-10T07:57:48;53.92;;;23.80;;
49296;SDS011;35163;48.878;18.040;2024-01-10T08:00:15;57.83;;;25.42;;
49296;SDS011;35163;48.878;18.040;2024-01-10T08:02:42;56.10;;;24.65;;
49296;SDS011;35163;48.878;18.040;2024-01-10T08:05:09;57.65;;;24.70;;
49296;SDS011;35163;48.878;18.040;2024-01-10T08:07:36;56.88;;;24.52;;
49296;SDS011;35163;48.878;18.040;2024-01-10T08:10:07;51.00;;;23.40;;
49296;SDS011;35163;48.878;18.040;2024-01-10T08:12:40;57.53;;;25.45;;
49296;SDS011;35163;48.878;18.040;2024-01-10T08:15:08;52.03;;;23.77;;
49296;SDS011;35163;48.878;18.040;2024-01-10T08:17:34;53.20;;;23.50;;
49296;SDS011;35163;48.878;18.040;2024-01-10T08:20:05;51.03;;;24.40;;
49296;SDS011;35163;48.878;18.040;2024-01-10T08:22:35;55.85;;;25.75;;
49296;SDS011;35163;48.878;18.040;2024-01-10T08:25:02;57.53;;;24.10;;
49296;SDS011;35163;48.878;18.040;2024-01-10T08:27:29;59.17;;;24.10;;
49296;SDS011;35163;48.878;18.040;2024-01-10T08:29:56;64.85;;;25.33;;
49296;SDS011;35163;48.878;18.040;2024-01-10T08:32:23;51.22;;;24.67;;
49296;SDS011;35163;48.878;18.040;2024-01-10T08:34:50;54.75;;;24.55;;
49296;SDS011;35163;48.878;18.040;2024-01-10T08:37:17;52.88;;;23.63;;
49296;SDS011;35163;48.878;18.040;2024-01-10T08:39:44;55.97;;;25.77;;
49296;SDS011;35163;48.878;18.040;2024-01-10T08:42:10;56.25;;;25.25;;
49296;SDS011;35163;48.878;18.040;2024-01-10T08:44:38;60.00;;;25.90;;
49296;SDS011;35163;48.878;18.040;2024-01-10T08:47:05;53.22;;;24.33;;
49296;SDS011;35163;48.878;18.040;2024-01-10T08:49:31;53.15;;;24.67;;
49296;SDS011;35163;48.878;18.040;2024-01-10T08:51:58;63.60;;;28.70;;
49296;SDS011;35163;48.878;18.040;2024-01-10T08:54:25;58.08;;;26.58;;
49296;SDS011;35163;48.878;18.040;2024-01-10T08:56:53;58.33;;;25.40;;
49296;SDS011;35163;48.878;18.040;2024-01-10T08:59:20;55.00;;;24.40;;
49296;SDS011;35163;48.878;18.040;2024-01-10T09:01:46;51.58;;;25.25;;
49296;SDS011;35163;48.878;18.040;2024-01-10T09:04:13;53.25;;;24.55;;
49296;SDS011;35163;48.878;18.040;2024-01-10T09:06:40;66.15;;;26.98;;
49296;SDS011;35163;48.878;18.040;2024-01-10T09:09:07;53.92;;;26.00;;
49296;SDS011;35163;48.878;18.040;2024-01-10T09:11:33;54.15;;;25.80;;
49296;SDS011;35163;48.878;18.040;2024-01-10T09:14:06;53.75;;;25.63;;
49296;SDS011;35163;48.878;18.040;2024-01-10T09:16:33;58.28;;;25.65;;
49296;SDS011;35163;48.878;18.040;2024-01-10T09:19:00;58.17;;;24.25;;
49296;SDS011;35163;48.878;18.040;2024-01-10T09:21:26;55.83;;;24.10;;
49296;SDS011;35163;48.878;18.040;2024-01-10T09:23:53;55.53;;;24.63;;
49296;SDS011;35163;48.878;18.040;2024-01-10T09:26:22;55.63;;;24.05;;
49296;SDS011;35163;48.878;18.040;2024-01-10T09:28:49;52.40;;;25.02;;
49296;SDS011;35163;48.878;18.040;2024-01-10T09:31:16;56.40;;;23.92;;
49296;SDS011;35163;48.878;18.040;2024-01-10T09:33:43;57.97;;;24.15;;
49296;SDS011;35163;48.878;18.040;2024-01-10T09:36:10;51.05;;;25.17;;
49296;SDS011;35163;48.878;18.040;2024-01-10T09:38:37;56.95;;;24.60;;
49296;SDS011;35163;48.878;18.040;2024-01-10T09:41:04;51.53;;;23.52;;
49296;SDS011;35163;48.878;18.040;2024-01-10T09:43:32;51.53;;;23.25;;
49296;SDS011;35163;48.878;18.040;2024-01-10T09:46:02;51.33;;;24.30;;
49296;SDS011;35163;48.878;18.040;2024-01-10T09:48:31;50.65;;;22.77;;
49296;SDS011;35163;48.878;18.040;2024-01-10T09:50:59;44.65;;;22.98;;
49296;SDS011;35163;48.878;18.040;2024-01-10T09:53:26;49.58;;;22.65;;
49296;SDS011;35163;48.878;18.040;2024-01-10T09:55:53;49.47;;;22.92;;
49296;SDS011;35163;48.878;18.040;2024-01-10T09:58:23;53.97;;;22.50;;
49296;SDS011;35163;48.878;18.040;2024-01-10T10:00:53;56.78;;;21.75;;
49296;SDS011;35163;48.878;18.040;2024-01-10T10:03:21;49.00;;;22.25;;
49296;SDS011;35163;48.878;18.040;2024-01-10T10:05:48;45.22;;;20.30;;
49296;SDS011;35163;48.878;18.040;2024-01-10T10:08:15;46.20;;;20.02;;
49296;SDS011;35163;48.878;18.040;2024-01-10T10:10:50;48.10;;;21.00;;
49296;SDS011;35163;48.878;18.040;2024-01-10T10:13:24;53.38;;;21.25;;
49296;SDS011;35163;48.878;18.040;2024-01-10T10:18:26;45.97;;;20.92;;
49296;SDS011;35163;48.878;18.040;2024-01-10T10:21:56;48.42;;;21.60;;
49296;SDS011;35163;48.878;18.040;2024-01-10T10:23:57;49.13;;;21.50;;
49296;SDS011;35163;48.878;18.040;2024-01-10T10:26:26;44.58;;;19.83;;
49296;SDS011;35163;48.878;18.040;2024-01-10T10:28:54;46.53;;;20.85;;
49296;SDS011;35163;48.878;18.040;2024-01-10T10:31:22;48.08;;;19.92;;
49296;SDS011;35163;48.878;18.040;2024-01-10T10:33:50;41.97;;;20.73;;
49296;SDS011;35163;48.878;18.040;2024-01-10T10:36:20;42.38;;;20.50;;
49296;SDS011;35163;48.878;18.040;2024-01-10T10:38:47;43.78;;;19.05;;
49296;SDS011;35163;48.878;18.040;2024-01-10T10:41:15;42.70;;;19.25;;
49296;SDS011;35163;48.878;18.040;2024-01-10T10:43:42;46.95;;;18.88;;
49296;SDS011;35163;48.878;18.040;2024-01-10T10:46:09;44.40;;;19.42;;
49296;SDS011;35163;48.878;18.040;2024-01-10T10:48:39;47.20;;;20.17;;
49296;SDS011;35163;48.878;18.040;2024-01-10T10:51:10;36.38;;;17.70;;
49296;SDS011;35163;48.878;18.040;2024-01-10T10:53:38;45.80;;;20.15;;
49296;SDS011;35163;48.878;18.040;2024-01-10T10:56:10;43.53;;;18.52;;
49296;SDS011;35163;48.878;18.040;2024-01-10T10:58:42;42.80;;;19.38;;
49296;SDS011;35163;48.878;18.040;2024-01-10T11:01:12;42.47;;;18.95;;
49296;SDS011;35163;48.878;18.040;2024-01-10T11:03:41;40.38;;;19.15;;
49296;SDS011;35163;48.878;18.040;2024-01-10T11:06:13;41.05;;;19.33;;
49296;SDS011;35163;48.878;18.040;2024-01-10T11:08:45;43.80;;;19.33;;
49296;SDS011;35163;48.878;18.040;2024-01-10T11:25:54;37.85;;;17.38;;
49296;SDS011;35163;48.878;18.040;2024-01-10T11:28:20;35.95;;;17.63;;
49296;SDS011;35163;48.878;18.040;2024-01-10T11:30:51;36.35;;;16.65;;
49296;SDS011;35163;48.878;18.040;2024-01-10T11:33:23;32.30;;;15.38;;
49296;SDS011;35163;48.878;18.040;2024-01-10T11:41:24;39.95;;;17.13;;
49296;SDS011;35163;48.878;18.040;2024-01-10T11:46:41;37.55;;;17.85;;
49296;SDS011;35163;48.878;18.040;2024-01-10T11:49:09;43.58;;;17.30;;
49296;SDS011;35163;48.878;18.040;2024-01-10T11:51:36;44.05;;;18.85;;
49296;SDS011;35163;48.878;18.040;2024-01-10T11:54:04;39.65;;;18.98;;
49296;SDS011;35163;48.878;18.040;2024-01-10T11:56:37;42.85;;;19.35;;
49296;SDS011;35163;48.878;18.040;2024-01-10T11:59:15;39.67;;;18.77;;
49296;SDS011;35163;48.878;18.040;2024-01-10T12:01:43;46.60;;;20.00;;
49296;SDS011;35163;48.878;18.040;2024-01-10T12:04:10;46.33;;;18.63;;
49296;SDS011;35163;48.878;18.040;2024-01-10T12:06:48;42.28;;;18.73;;
49296;SDS011;35163;48.878;18.040;2024-01-10T12:09:16;35.47;;;17.17;;
49296;SDS011;35163;48.878;18.040;2024-01-10T12:11:43;42.10;;;19.27;;
49296;SDS011;35163;48.878;18.040;2024-01-10T12:14:09;47.30;;;19.63;;
49296;SDS011;35163;48.878;18.040;2024-01-10T12:16:37;41.33;;;17.73;;
49296;SDS011;35163;48.878;18.040;2024-01-10T12:19:05;40.75;;;18.83;;
49296;SDS011;35163;48.878;18.040;2024-01-10T12:21:31;42.67;;;19.85;;
49296;SDS011;35163;48.878;18.040;2024-01-10T12:23:58;50.42;;;19.58;;
49296;SDS011;35163;48.878;18.040;2024-01-10T12:26:25;39.58;;;18.23;;
49296;SDS011;35163;48.878;18.040;2024-01-10T12:28:59;40.08;;;17.90;;
49296;SDS011;35163;48.878;18.040;2024-01-10T12:31:29;36.40;;;16.27;;
49296;SDS011;35163;48.878;18.040;2024-01-10T12:33:57;36.53;;;15.20;;
49296;SDS011;35163;48.878;18.040;2024-01-10T12:36:25;37.45;;;16.92;;
49296;SDS011;35163;48.878;18.040;2024-01-10T12:38:52;33.22;;;15.38;;
49296;SDS011;35163;48.878;18.040;2024-01-10T12:41:18;30.60;;;14.70;;
49296;SDS011;35163;48.878;18.040;2024-01-10T12:43:49;27.70;;;13.27;;
49296;SDS011;35163;48.878;18.040;2024-01-10T12:46:19;28.75;;;12.05;;
49296;SDS011;35163;48.878;18.040;2024-01-10T12:48:45;31.88;;;14.45;;
49296;SDS011;35163;48.878;18.040;2024-01-10T12:51:25;23.35;;;11.38;;
49296;SDS011;35163;48.878;18.040;2024-01-10T12:53:52;23.75;;;11.75;;
49296;SDS011;35163;48.878;18.040;2024-01-10T12:56:19;26.33;;;10.55;;
49296;SDS011;35163;48.878;18.040;2024-01-10T12:58:46;23.77;;;10.65;;
49296;SDS011;35163;48.878;18.040;2024-01-10T13:01:13;22.48;;;10.90;;
49296;SDS011;35163;48.878;18.040;2024-01-10T13:03:40;26.48;;;10.95;;
49296;SDS011;35163;48.878;18.040;2024-01-10T13:06:07;23.30;;;9.70;;
49296;SDS011;35163;48.878;18.040;2024-01-10T13:08:35;26.10;;;10.32;;
49296;SDS011;35163;48.878;18.040;2024-01-10T13:11:03;23.63;;;10.57;;
49296;SDS011;35163;48.878;18.040;2024-01-10T13:13:36;23.95;;;10.35;;
49296;SDS011;35163;48.878;18.040;2024-01-10T13:16:02;30.60;;;12.75;;
49296;SDS011;35163;48.878;18.040;2024-01-10T13:18:30;27.60;;;12.45;;
49296;SDS011;35163;48.878;18.040;2024-01-10T13:20:57;24.05;;;10.30;;
49296;SDS011;35163;48.878;18.040;2024-01-10T13:23:24;24.40;;;11.48;;
49296;SDS011;35163;48.878;18.040;2024-01-10T13:25:50;22.08;;;10.30;;
49296;SDS011;35163;48.878;18.040;2024-01-10T13:28:18;24.77;;;11.00;;
49296;SDS011;35163;48.878;18.040;2024-01-10T13:30:45;26.77;;;10.52;;
49296;SDS011;35163;48.878;18.040;2024-01-10T13:33:12;25.77;;;10.70;;
49296;SDS011;35163;48.878;18.040;2024-01-10T13:35:39;23.25;;;9.48;;
49296;SDS011;35163;48.878;18.040;2024-01-10T13:38:06;22.42;;;10.27;;
49296;SDS011;35163;48.878;18.040;2024-01-10T13:40:33;23.35;;;10.00;;
49296;SDS011;35163;48.878;18.040;2024-01-10T13:43:00;20.95;;;9.75;;
49296;SDS011;35163;48.878;18.040;2024-01-10T13:45:30;24.23;;;10.88;;
49296;SDS011;35163;48.878;18.040;2024-01-10T13:47:57;28.67;;;11.45;;
49296;SDS011;35163;48.878;18.040;2024-01-10T13:50:24;22.40;;;9.80;;
49296;SDS011;35163;48.878;18.040;2024-01-10T13:52:51;21.42;;;9.88;;
49296;SDS011;35163;48.878;18.040;2024-01-10T13:55:20;23.33;;;10.15;;
49296;SDS011;35163;48.878;18.040;2024-01-10T13:57:47;18.70;;;9.15;;
49296;SDS011;35163;48.878;18.040;2024-01-10T14:00:14;23.63;;;9.88;;
49296;SDS011;35163;48.878;18.040;2024-01-10T14:02:43;23.15;;;8.85;;
49296;SDS011;35163;48.878;18.040;2024-01-10T14:05:10;21.95;;;8.90;;
49296;SDS011;35163;48.878;18.040;2024-01-10T14:07:37;17.67;;;7.97;;
49296;SDS011;35163;48.878;18.040;2024-01-10T14:10:04;19.00;;;8.23;;
49296;SDS011;35163;48.878;18.040;2024-01-10T14:12:32;19.13;;;8.45;;
49296;SDS011;35163;48.878;18.040;2024-01-10T14:14:59;19.65;;;8.88;;
49296;SDS011;35163;48.878;18.040;2024-01-10T14:17:28;18.35;;;9.52;;
49296;SDS011;35163;48.878;18.040;2024-01-10T14:19:55;20.83;;;9.63;;
49296;SDS011;35163;48.878;18.040;2024-01-10T14:22:22;18.38;;;8.98;;
49296;SDS011;35163;48.878;18.040;2024-01-10T14:24:57;23.27;;;9.23;;
49296;SDS011;35163;48.878;18.040;2024-01-10T14:27:28;20.00;;;8.45;;
49296;SDS011;35163;48.878;18.040;2024-01-10T14:29:54;23.10;;;9.07;;
49296;SDS011;35163;48.878;18.040;2024-01-10T14:32:21;18.98;;;8.60;;
49296;SDS011;35163;48.878;18.040;2024-01-10T14:34:49;18.48;;;8.55;;
49296;SDS011;35163;48.878;18.040;2024-01-10T14:37:16;19.83;;;9.00;;